sensor_id;sensor_type;location;lat;lon;timestamp;temperature;humidity
11925;DHT22;6022;48.768;18.608;2024-03-06T00:00:14;8.00;99.90
11925;DHT22;6022;48.768;18.608;2024-03-06T00:02:43;8.10;99.90
11925;DHT22;6022;48.768;18.608;2024-03-06T00:05:12;8.30;99.90
11925;DHT22;6022;48.768;18.608;2024-03-06T00:07:41;8.10;99.90
11925;DHT22;6022;48.768;18.608;2024-03-06T00:10:09;8.00;99.90
11925;DHT22;6022;48.768;18.608;2024-03-06T00:12:37;8.10;99.90
11925;DHT22;6022;48.768;18.608;2024-03-06T00:15:05;8.00;99.90
11925;DHT22;6022;48.768;18.608;2024-03-06T00:17:33;7.90;99.90
11925;DHT22;6022;48.768;18.608;2024-03-06T00:20:01;7.90;99.90
11925;DHT22;6022;48.768;18.608;2024-03-06T00:22:32;8.00;99.90
11925;DHT22;6022;48.768;18.608;2024-03-06T00:25:00;7.90;99.90
11925;DHT22;6022;48.768;18.608;2024-03-06T00:27:28;7.90;99.90
11925;DHT22;6022;48.768;18.608;2024-03-06T00:29:57;8.00;99.90
11925;DHT22;6022;48.768;18.608;2024-03-06T00:32:26;7.80;99.90
11925;DHT22;6022;48.768;18.608;2024-03-06T00:34:56;8.00;99.90
11925;DHT22;6022;48.768;18.608;2024-03-06T00:37:25;8.10;99.90
11925;DHT22;6022;48.768;18.608;2024-03-06T00:39:52;8.40;99.90
11925;DHT22;6022;48.768;18.608;2024-03-06T00:42:21;8.10;99.90
11925;DHT22;6022;48.768;18.608;2024-03-06T00:44:49;8.00;99.90
11925;DHT22;6022;48.768;18.608;2024-03-06T00:47:18;8.00;99.90
11925;DHT22;6022;48.768;18.608;2024-03-06T00:49:46;8.10;99.90
11925;DHT22;6022;48.768;18.608;2024-03-06T00:52:14;8.00;99.90
11925;DHT22;6022;48.768;18.608;2024-03-06T00:54:43;8.30;99.90
11925;DHT22;6022;48.768;18.608;2024-03-06T00:57:11;8.00;99.90
11925;DHT22;6022;48.768;18.608;2024-03-06T00:59:39;8.00;99.90
11925;DHT22;6022;48.768;18.608;2024-03-06T01:02:07;8.00;99.90
11925;DHT22;6022;48.768;18.608;2024-03-06T01:04:37;8.30;99.90
11925;DHT22;6022;48.768;18.608;2024-03-06T01:07:05;8.00;99.90
11925;DHT22;6022;48.768;18.608;2024-03-06T01:09:33;8.10;99.90
11925;DHT22;6022;48.768;18.608;2024-03-06T01:12:02;7.90;99.90
11925;DHT22;6022;48.768;18.608;2024-03-06T01:14:31;8.00;99.90
11925;DHT22;6022;48.768;18.608;2024-03-06T01:17:03;7.90;99.90
11925;DHT22;6022;48.768;18.608;2024-03-06T01:19:34;7.90;99.90
11925;DHT22;6022;48.768;18.608;2024-03-06T01:22:02;7.80;99.90
11925;DHT22;6022;48.768;18.608;2024-03-06T01:24:33;7.80;99.90
11925;DHT22;6022;48.768;18.608;2024-03-06T01:27:02;8.00;99.90
11925;DHT22;6022;48.768;18.608;2024-03-06T01:29:32;8.00;99.90
11925;DHT22;6022;48.768;18.608;2024-03-06T01:32:00;8.00;99.90
11925;DHT22;6022;48.768;18.608;2024-03-06T01:34:28;8.00;99.90
11925;DHT22;6022;48.768;18.608;2024-03-06T01:36:57;8.00;99.90
11925;DHT22;6022;48.768;18.608;2024-03-06T01:39:25;7.70;99.90
11925;DHT22;6022;48.768;18.608;2024-03-06T01:41:54;8.00;99.90
11925;DHT22;6022;48.768;18.608;2024-03-06T01:44:22;8.20;99.90
11925;DHT22;6022;48.768;18.608;2024-03-06T01:46:52;8.00;99.90
11925;DHT22;6022;48.768;18.608;2024-03-06T01:49:23;8.00;99.90
11925;DHT22;6022;48.768;18.608;2024-03-06T01:52:07;8.00;99.90
11925;DHT22;6022;48.768;18.608;2024-03-06T01:54:38;7.90;99.90
11925;DHT22;6022;48.768;18.608;2024-03-06T01:57:08;7.80;99.90
11925;DHT22;6022;48.768;18.608;2024-03-06T01:59:38;7.90;99.90
11925;DHT22;6022;48.768;18.608;2024-03-06T02:02:07;7.90;99.90
11925;DHT22;6022;48.768;18.608;2024-03-06T02:04:41;7.90;99.90
11925;DHT22;6022;48.768;18.608;2024-03-06T02:07:09;7.90;99.90
11925;DHT22;6022;48.768;18.608;2024-03-06T02:09:38;7.90;99.90
11925;DHT22;6022;48.768;18.608;2024-03-06T02:12:07;8.00;99.90
11925;DHT22;6022;48.768;18.608;2024-03-06T02:14:38;7.80;99.90
11925;DHT22;6022;48.768;18.608;2024-03-06T02:17:07;7.90;99.90
11925;DHT22;6022;48.768;18.608;2024-03-06T02:19:42;7.80;99.90
11925;DHT22;6022;48.768;18.608;2024-03-06T02:22:11;7.80;99.90
11925;DHT22;6022;48.768;18.608;2024-03-06T02:24:44;7.80;99.90
11925;DHT22;6022;48.768;18.608;2024-03-06T02:27:13;7.70;99.90
11925;DHT22;6022;48.768;18.608;2024-03-06T02:29:40;7.90;99.90
11925;DHT22;6022;48.768;18.608;2024-03-06T02:32:09;7.70;99.90
11925;DHT22;6022;48.768;18.608;2024-03-06T02:34:40;7.70;99.90
11925;DHT22;6022;48.768;18.608;2024-03-06T02:37:09;7.80;99.90
11925;DHT22;6022;48.768;18.608;2024-03-06T02:39:37;7.60;99.90
11925;DHT22;6022;48.768;18.608;2024-03-06T02:42:05;7.60;99.90
11925;DHT22;6022;48.768;18.608;2024-03-06T02:44:34;7.20;99.90
11925;DHT22;6022;48.768;18.608;2024-03-06T02:47:03;7.50;99.90
11925;DHT22;6022;48.768;18.608;2024-03-06T02:49:31;7.50;99.90
11925;DHT22;6022;48.768;18.608;2024-03-06T02:52:00;7.40;99.90
11925;DHT22;6022;48.768;18.608;2024-03-06T02:54:29;7.40;99.90
11925;DHT22;6022;48.768;18.608;2024-03-06T02:56:57;7.50;99.90
11925;DHT22;6022;48.768;18.608;2024-03-06T02:59:25;7.30;99.90
11925;DHT22;6022;48.768;18.608;2024-03-06T03:01:53;7.50;99.90
11925;DHT22;6022;48.768;18.608;2024-03-06T03:04:22;7.40;99.90
11925;DHT22;6022;48.768;18.608;2024-03-06T03:06:50;7.30;99.90
11925;DHT22;6022;48.768;18.608;2024-03-06T03:09:18;7.40;99.90
11925;DHT22;6022;48.768;18.608;2024-03-06T03:11:47;7.20;99.90
11925;DHT22;6022;48.768;18.608;2024-03-06T03:14:15;7.00;99.90
11925;DHT22;6022;48.768;18.608;2024-03-06T03:16:44;6.80;99.90
11925;DHT22;6022;48.768;18.608;2024-03-06T03:19:11;7.30;99.90
11925;DHT22;6022;48.768;18.608;2024-03-06T03:21:44;6.80;99.90
11925;DHT22;6022;48.768;18.608;2024-03-06T03:24:12;7.20;99.90
11925;DHT22;6022;48.768;18.608;2024-03-06T03:26:40;7.30;99.90
11925;DHT22;6022;48.768;18.608;2024-03-06T03:29:09;7.20;99.90
11925;DHT22;6022;48.768;18.608;2024-03-06T03:31:37;7.20;99.90
11925;DHT22;6022;48.768;18.608;2024-03-06T03:34:05;7.10;99.90
11925;DHT22;6022;48.768;18.608;2024-03-06T03:36:35;7.10;99.90
11925;DHT22;6022;48.768;18.608;2024-03-06T03:39:02;7.20;99.90
11925;DHT22;6022;48.768;18.608;2024-03-06T03:41:31;6.70;99.90
11925;DHT22;6022;48.768;18.608;2024-03-06T03:44:00;6.90;99.90
11925;DHT22;6022;48.768;18.608;2024-03-06T03:46:28;6.60;99.90
11925;DHT22;6022;48.768;18.608;2024-03-06T03:48:57;6.60;99.90
11925;DHT22;6022;48.768;18.608;2024-03-06T03:51:24;6.80;99.90
11925;DHT22;6022;48.768;18.608;2024-03-06T03:53:53;6.80;99.90
11925;DHT22;6022;48.768;18.608;2024-03-06T03:56:21;6.80;99.90
11925;DHT22;6022;48.768;18.608;2024-03-06T03:58:49;6.70;99.90
11925;DHT22;6022;48.768;18.608;2024-03-06T04:01:17;6.70;99.90
11925;DHT22;6022;48.768;18.608;2024-03-06T04:03:45;6.70;99.90
11925;DHT22;6022;48.768;18.608;2024-03-06T04:06:13;6.70;99.90
11925;DHT22;6022;48.768;18.608;2024-03-06T04:08:41;6.70;99.90
11925;DHT22;6022;48.768;18.608;2024-03-06T04:11:09;6.90;99.90
11925;DHT22;6022;48.768;18.608;2024-03-06T04:13:38;6.70;99.90
11925;DHT22;6022;48.768;18.608;2024-03-06T04:16:07;6.70;99.90
11925;DHT22;6022;48.768;18.608;2024-03-06T04:18:35;6.60;99.90
11925;DHT22;6022;48.768;18.608;2024-03-06T04:21:05;6.90;99.90
11925;DHT22;6022;48.768;18.608;2024-03-06T04:23:33;6.60;99.90
11925;DHT22;6022;48.768;18.608;2024-03-06T04:26:02;6.50;99.90
11925;DHT22;6022;48.768;18.608;2024-03-06T04:28:34;6.50;99.90
11925;DHT22;6022;48.768;18.608;2024-03-06T04:31:02;6.60;99.90
11925;DHT22;6022;48.768;18.608;2024-03-06T04:33:30;6.40;99.90
11925;DHT22;6022;48.768;18.608;2024-03-06T04:36:01;6.40;99.90
11925;DHT22;6022;48.768;18.608;2024-03-06T04:38:31;6.40;99.90
11925;DHT22;6022;48.768;18.608;2024-03-06T04:41:00;6.50;99.90
11925;DHT22;6022;48.768;18.608;2024-03-06T04:43:27;6.20;99.90
11925;DHT22;6022;48.768;18.608;2024-03-06T04:45:55;6.40;99.90
11925;DHT22;6022;48.768;18.608;2024-03-06T04:48:23;6.10;99.90
11925;DHT22;6022;48.768;18.608;2024-03-06T04:50:52;6.20;99.90
11925;DHT22;6022;48.768;18.608;2024-03-06T04:53:20;6.40;99.90
11925;DHT22;6022;48.768;18.608;2024-03-06T04:55:49;6.20;99.90
11925;DHT22;6022;48.768;18.608;2024-03-06T04:58:17;6.20;99.90
11925;DHT22;6022;48.768;18.608;2024-03-06T05:00:45;6.10;99.90
11925;DHT22;6022;48.768;18.608;2024-03-06T05:03:14;6.10;99.90
11925;DHT22;6022;48.768;18.608;2024-03-06T05:05:59;6.00;99.90
11925;DHT22;6022;48.768;18.608;2024-03-06T05:08:45;5.80;99.90
11925;DHT22;6022;48.768;18.608;2024-03-06T05:11:30;6.10;99.90
11925;DHT22;6022;48.768;18.608;2024-03-06T05:14:15;6.40;99.90
11925;DHT22;6022;48.768;18.608;2024-03-06T05:17:01;6.40;99.90
11925;DHT22;6022;48.768;18.608;2024-03-06T05:19:48;6.10;99.90
11925;DHT22;6022;48.768;18.608;2024-03-06T05:22:33;6.20;99.90
11925;DHT22;6022;48.768;18.608;2024-03-06T05:25:18;6.10;99.90
11925;DHT22;6022;48.768;18.608;2024-03-06T05:28:04;6.10;99.90
11925;DHT22;6022;48.768;18.608;2024-03-06T05:30:49;6.10;99.90
11925;DHT22;6022;48.768;18.608;2024-03-06T05:33:33;6.20;99.90
11925;DHT22;6022;48.768;18.608;2024-03-06T05:36:19;6.20;99.90
11925;DHT22;6022;48.768;18.608;2024-03-06T05:39:04;6.40;99.90
11925;DHT22;6022;48.768;18.608;2024-03-06T05:41:51;6.60;99.90
11925;DHT22;6022;48.768;18.608;2024-03-06T05:44:37;6.20;99.90
11925;DHT22;6022;48.768;18.608;2024-03-06T05:47:21;6.60;99.90
11925;DHT22;6022;48.768;18.608;2024-03-06T05:50:06;6.50;99.90
11925;DHT22;6022;48.768;18.608;2024-03-06T05:52:52;6.60;99.90
11925;DHT22;6022;48.768;18.608;2024-03-06T05:55:37;6.50;99.90
11925;DHT22;6022;48.768;18.608;2024-03-06T05:58:22;6.60;99.90
11925;DHT22;6022;48.768;18.608;2024-03-06T06:00:51;6.80;99.90
11925;DHT22;6022;48.768;18.608;2024-03-06T06:03:21;6.60;99.90
11925;DHT22;6022;48.768;18.608;2024-03-06T06:05:50;6.60;99.90
11925;DHT22;6022;48.768;18.608;2024-03-06T06:08:17;6.70;99.90
11925;DHT22;6022;48.768;18.608;2024-03-06T06:10:45;6.70;99.90
11925;DHT22;6022;48.768;18.608;2024-03-06T06:13:14;6.80;99.90
11925;DHT22;6022;48.768;18.608;2024-03-06T06:15:41;6.70;99.90
11925;DHT22;6022;48.768;18.608;2024-03-06T06:18:09;7.00;99.90
11925;DHT22;6022;48.768;18.608;2024-03-06T06:20:37;6.50;99.90
11925;DHT22;6022;48.768;18.608;2024-03-06T06:23:06;6.50;99.90
11925;DHT22;6022;48.768;18.608;2024-03-06T06:25:34;6.90;99.90
11925;DHT22;6022;48.768;18.608;2024-03-06T06:28:03;6.80;99.90
11925;DHT22;6022;48.768;18.608;2024-03-06T06:30:32;6.90;99.90
11925;DHT22;6022;48.768;18.608;2024-03-06T06:33:01;7.10;99.90
11925;DHT22;6022;48.768;18.608;2024-03-06T06:35:29;6.90;99.90
11925;DHT22;6022;48.768;18.608;2024-03-06T06:37:58;7.00;99.90
11925;DHT22;6022;48.768;18.608;2024-03-06T06:40:26;7.20;99.90
11925;DHT22;6022;48.768;18.608;2024-03-06T06:42:58;6.80;99.90
11925;DHT22;6022;48.768;18.608;2024-03-06T06:45:26;7.10;99.90
11925;DHT22;6022;48.768;18.608;2024-03-06T06:47:56;7.20;99.90
11925;DHT22;6022;48.768;18.608;2024-03-06T06:50:24;7.50;99.90
11925;DHT22;6022;48.768;18.608;2024-03-06T06:52:54;7.60;99.90
11925;DHT22;6022;48.768;18.608;2024-03-06T06:55:23;7.30;99.90
11925;DHT22;6022;48.768;18.608;2024-03-06T06:57:51;7.50;99.90
11925;DHT22;6022;48.768;18.608;2024-03-06T07:00:20;7.40;99.90
11925;DHT22;6022;48.768;18.608;2024-03-06T07:02:50;7.50;99.90
11925;DHT22;6022;48.768;18.608;2024-03-06T07:05:18;8.90;99.90
11925;DHT22;6022;48.768;18.608;2024-03-06T07:07:46;7.80;99.90
11925;DHT22;6022;48.768;18.608;2024-03-06T07:10:21;7.70;99.90
11925;DHT22;6022;48.768;18.608;2024-03-06T07:12:49;7.90;99.90
11925;DHT22;6022;48.768;18.608;2024-03-06T07:15:16;7.80;99.90
11925;DHT22;6022;48.768;18.608;2024-03-06T07:17:44;7.90;99.90
11925;DHT22;6022;48.768;18.608;2024-03-06T07:20:13;7.90;99.90
11925;DHT22;6022;48.768;18.608;2024-03-06T07:22:47;8.40;99.90
11925;DHT22;6022;48.768;18.608;2024-03-06T07:25:14;8.10;99.90
11925;DHT22;6022;48.768;18.608;2024-03-06T07:27:43;8.00;99.90
11925;DHT22;6022;48.768;18.608;2024-03-06T07:30:12;8.30;99.90
11925;DHT22;6022;48.768;18.608;2024-03-06T07:32:40;8.20;99.90
11925;DHT22;6022;48.768;18.608;2024-03-06T07:35:08;8.50;99.90
11925;DHT22;6022;48.768;18.608;2024-03-06T07:37:36;8.40;99.90
11925;DHT22;6022;48.768;18.608;2024-03-06T07:40:04;8.60;99.90
11925;DHT22;6022;48.768;18.608;2024-03-06T07:42:34;8.60;99.90
11925;DHT22;6022;48.768;18.608;2024-03-06T07:45:03;8.80;99.90
11925;DHT22;6022;48.768;18.608;2024-03-06T07:47:31;9.00;99.90
11925;DHT22;6022;48.768;18.608;2024-03-06T07:49:59;9.00;99.90
11925;DHT22;6022;48.768;18.608;2024-03-06T07:52:27;9.40;99.90
11925;DHT22;6022;48.768;18.608;2024-03-06T07:54:56;9.50;99.90
11925;DHT22;6022;48.768;18.608;2024-03-06T07:57:26;9.70;99.90
11925;DHT22;6022;48.768;18.608;2024-03-06T07:59:54;10.00;99.90
11925;DHT22;6022;48.768;18.608;2024-03-06T08:02:22;10.40;99.90
11925;DHT22;6022;48.768;18.608;2024-03-06T08:04:50;10.50;99.90
11925;DHT22;6022;48.768;18.608;2024-03-06T08:07:19;10.50;99.90
11925;DHT22;6022;48.768;18.608;2024-03-06T08:09:47;10.60;99.90
11925;DHT22;6022;48.768;18.608;2024-03-06T08:12:15;10.60;99.90
11925;DHT22;6022;48.768;18.608;2024-03-06T08:14:43;11.00;99.90
11925;DHT22;6022;48.768;18.608;2024-03-06T08:17:12;10.70;99.90
11925;DHT22;6022;48.768;18.608;2024-03-06T08:19:40;10.60;99.90
11925;DHT22;6022;48.768;18.608;2024-03-06T08:22:08;11.10;99.90
11925;DHT22;6022;48.768;18.608;2024-03-06T08:24:38;11.30;99.90
11925;DHT22;6022;48.768;18.608;2024-03-06T08:27:06;10.80;99.90
11925;DHT22;6022;48.768;18.608;2024-03-06T08:29:33;11.40;99.90
11925;DHT22;6022;48.768;18.608;2024-03-06T08:32:01;11.40;99.90
11925;DHT22;6022;48.768;18.608;2024-03-06T08:34:31;11.30;99.90
11925;DHT22;6022;48.768;18.608;2024-03-06T08:36:58;11.40;99.90
11925;DHT22;6022;48.768;18.608;2024-03-06T08:39:26;11.40;99.90
11925;DHT22;6022;48.768;18.608;2024-03-06T08:41:55;10.70;99.90
11925;DHT22;6022;48.768;18.608;2024-03-06T08:44:22;10.80;99.90
11925;DHT22;6022;48.768;18.608;2024-03-06T08:46:50;10.80;99.90
11925;DHT22;6022;48.768;18.608;2024-03-06T08:49:18;10.70;99.90
11925;DHT22;6022;48.768;18.608;2024-03-06T08:51:45;10.80;99.90
11925;DHT22;6022;48.768;18.608;2024-03-06T08:54:13;10.80;99.90
11925;DHT22;6022;48.768;18.608;2024-03-06T08:56:43;10.70;99.90
11925;DHT22;6022;48.768;18.608;2024-03-06T08:59:11;10.50;99.90
11925;DHT22;6022;48.768;18.608;2024-03-06T09:01:39;10.80;99.90
11925;DHT22;6022;48.768;18.608;2024-03-06T09:04:06;11.00;99.90
11925;DHT22;6022;48.768;18.608;2024-03-06T09:06:34;10.90;99.90
11925;DHT22;6022;48.768;18.608;2024-03-06T09:09:03;11.10;99.90
11925;DHT22;6022;48.768;18.608;2024-03-06T09:11:32;11.40;99.90
11925;DHT22;6022;48.768;18.608;2024-03-06T09:14:03;11.40;99.90
11925;DHT22;6022;48.768;18.608;2024-03-06T09:16:32;11.50;99.90
11925;DHT22;6022;48.768;18.608;2024-03-06T09:19:00;12.10;99.90
11925;DHT22;6022;48.768;18.608;2024-03-06T09:21:28;12.10;99.90
11925;DHT22;6022;48.768;18.608;2024-03-06T09:23:56;12.20;99.90
11925;DHT22;6022;48.768;18.608;2024-03-06T09:26:24;12.00;99.90
11925;DHT22;6022;48.768;18.608;2024-03-06T09:28:52;12.20;99.90
11925;DHT22;6022;48.768;18.608;2024-03-06T09:31:19;12.20;99.90
11925;DHT22;6022;48.768;18.608;2024-03-06T09:33:47;12.40;99.90
11925;DHT22;6022;48.768;18.608;2024-03-06T09:36:15;12.20;99.90
11925;DHT22;6022;48.768;18.608;2024-03-06T09:38:43;12.10;99.90
11925;DHT22;6022;48.768;18.608;2024-03-06T09:41:10;11.80;99.90
11925;DHT22;6022;48.768;18.608;2024-03-06T09:43:39;12.30;99.90
11925;DHT22;6022;48.768;18.608;2024-03-06T09:46:08;12.20;99.90
11925;DHT22;6022;48.768;18.608;2024-03-06T09:48:45;11.80;99.90
11925;DHT22;6022;48.768;18.608;2024-03-06T09:51:15;11.70;99.90
11925;DHT22;6022;48.768;18.608;2024-03-06T09:53:43;12.00;99.90
11925;DHT22;6022;48.768;18.608;2024-03-06T09:56:11;12.10;99.90
11925;DHT22;6022;48.768;18.608;2024-03-06T09:58:39;12.00;99.90
11925;DHT22;6022;48.768;18.608;2024-03-06T10:01:08;11.80;99.90
11925;DHT22;6022;48.768;18.608;2024-03-06T10:03:38;11.80;99.90
11925;DHT22;6022;48.768;18.608;2024-03-06T10:06:08;11.90;99.90
11925;DHT22;6022;48.768;18.608;2024-03-06T10:08:42;12.20;99.90
11925;DHT22;6022;48.768;18.608;2024-03-06T10:11:11;12.80;99.90
11925;DHT22;6022;48.768;18.608;2024-03-06T10:13:39;12.60;99.90
11925;DHT22;6022;48.768;18.608;2024-03-06T10:16:07;13.80;99.90
11925;DHT22;6022;48.768;18.608;2024-03-06T10:18:38;13.70;99.90
11925;DHT22;6022;48.768;18.608;2024-03-06T10:21:09;14.00;99.90
11925;DHT22;6022;48.768;18.608;2024-03-06T10:23:37;13.70;99.90
11925;DHT22;6022;48.768;18.608;2024-03-06T10:26:07;13.80;99.90
11925;DHT22;6022;48.768;18.608;2024-03-06T10:28:35;13.90;99.90
11925;DHT22;6022;48.768;18.608;2024-03-06T10:31:04;14.00;99.90
11925;DHT22;6022;48.768;18.608;2024-03-06T10:33:35;14.20;99.90
11925;DHT22;6022;48.768;18.608;2024-03-06T10:36:05;14.80;99.90
11925;DHT22;6022;48.768;18.608;2024-03-06T10:38:43;15.10;99.90
11925;DHT22;6022;48.768;18.608;2024-03-06T10:41:14;15.10;99.90
11925;DHT22;6022;48.768;18.608;2024-03-06T10:43:47;14.50;99.90
11925;DHT22;6022;48.768;18.608;2024-03-06T10:46:22;14.30;99.90
11925;DHT22;6022;48.768;18.608;2024-03-06T10:48:51;14.40;99.90
11925;DHT22;6022;48.768;18.608;2024-03-06T10:51:21;14.20;99.90
11925;DHT22;6022;48.768;18.608;2024-03-06T10:53:50;13.60;99.90
11925;DHT22;6022;48.768;18.608;2024-03-06T10:56:18;13.60;99.90
11925;DHT22;6022;48.768;18.608;2024-03-06T10:58:50;13.50;99.90
11925;DHT22;6022;48.768;18.608;2024-03-06T11:01:20;13.50;99.90
11925;DHT22;6022;48.768;18.608;2024-03-06T11:03:49;14.00;99.90
11925;DHT22;6022;48.768;18.608;2024-03-06T11:06:17;13.70;99.90
11925;DHT22;6022;48.768;18.608;2024-03-06T11:08:45;13.60;99.90
11925;DHT22;6022;48.768;18.608;2024-03-06T11:11:23;13.40;99.90
11925;DHT22;6022;48.768;18.608;2024-03-06T11:13:59;13.50;99.90
11925;DHT22;6022;48.768;18.608;2024-03-06T11:16:32;13.60;99.90
11925;DHT22;6022;48.768;18.608;2024-03-06T11:19:23;13.50;99.90
11925;DHT22;6022;48.768;18.608;2024-03-06T11:28:20;15.40;99.90
11925;DHT22;6022;48.768;18.608;2024-03-06T11:33:37;16.30;97.70
11925;DHT22;6022;48.768;18.608;2024-03-06T11:36:33;16.80;96.60
11925;DHT22;6022;48.768;18.608;2024-03-06T11:39:08;16.50;96.40
11925;DHT22;6022;48.768;18.608;2024-03-06T11:44:18;16.20;97.90
11925;DHT22;6022;48.768;18.608;2024-03-06T11:47:05;16.00;98.60
11925;DHT22;6022;48.768;18.608;2024-03-06T11:49:36;16.00;97.50
11925;DHT22;6022;48.768;18.608;2024-03-06T11:52:09;16.40;98.10
11925;DHT22;6022;48.768;18.608;2024-03-06T11:54:37;16.40;97.90
11925;DHT22;6022;48.768;18.608;2024-03-06T11:57:06;16.30;96.60
11925;DHT22;6022;48.768;18.608;2024-03-06T11:59:35;16.60;94.90
11925;DHT22;6022;48.768;18.608;2024-03-06T12:02:07;16.70;94.10
11925;DHT22;6022;48.768;18.608;2024-03-06T12:04:37;16.70;94.30
11925;DHT22;6022;48.768;18.608;2024-03-06T12:07:08;16.70;94.60
11925;DHT22;6022;48.768;18.608;2024-03-06T12:09:38;17.10;94.20
11925;DHT22;6022;48.768;18.608;2024-03-06T12:12:10;17.00;94.80
11925;DHT22;6022;48.768;18.608;2024-03-06T12:14:41;17.10;91.50
11925;DHT22;6022;48.768;18.608;2024-03-06T12:17:13;17.10;91.30
11925;DHT22;6022;48.768;18.608;2024-03-06T12:19:46;17.20;92.60
11925;DHT22;6022;48.768;18.608;2024-03-06T12:22:15;17.20;93.20
11925;DHT22;6022;48.768;18.608;2024-03-06T12:24:43;17.40;89.60
11925;DHT22;6022;48.768;18.608;2024-03-06T12:27:11;17.60;90.90
11925;DHT22;6022;48.768;18.608;2024-03-06T12:29:43;17.40;90.60
11925;DHT22;6022;48.768;18.608;2024-03-06T12:32:18;17.50;85.80
11925;DHT22;6022;48.768;18.608;2024-03-06T12:34:58;17.50;88.70
11925;DHT22;6022;48.768;18.608;2024-03-06T12:37:31;17.50;87.30
11925;DHT22;6022;48.768;18.608;2024-03-06T12:40:02;17.50;85.40
11925;DHT22;6022;48.768;18.608;2024-03-06T12:42:40;17.70;86.40
11925;DHT22;6022;48.768;18.608;2024-03-06T12:45:09;17.80;85.00
11925;DHT22;6022;48.768;18.608;2024-03-06T12:47:37;17.80;82.30
11925;DHT22;6022;48.768;18.608;2024-03-06T12:50:05;17.20;81.30
11925;DHT22;6022;48.768;18.608;2024-03-06T12:52:35;17.30;81.70
11925;DHT22;6022;48.768;18.608;2024-03-06T12:55:03;17.20;75.40
11925;DHT22;6022;48.768;18.608;2024-03-06T12:57:34;17.30;76.70
11925;DHT22;6022;48.768;18.608;2024-03-06T13:00:02;17.70;72.40
11925;DHT22;6022;48.768;18.608;2024-03-06T13:02:30;17.50;72.40
11925;DHT22;6022;48.768;18.608;2024-03-06T13:04:58;17.80;71.10
11925;DHT22;6022;48.768;18.608;2024-03-06T13:07:26;17.70;70.80
11925;DHT22;6022;48.768;18.608;2024-03-06T13:09:54;17.70;70.60
11925;DHT22;6022;48.768;18.608;2024-03-06T13:12:22;17.70;68.20
11925;DHT22;6022;48.768;18.608;2024-03-06T13:14:49;17.80;66.60
11925;DHT22;6022;48.768;18.608;2024-03-06T13:17:21;17.30;67.10
11925;DHT22;6022;48.768;18.608;2024-03-06T13:19:49;16.70;69.90
11925;DHT22;6022;48.768;18.608;2024-03-06T13:22:17;16.70;69.20
11925;DHT22;6022;48.768;18.608;2024-03-06T13:24:45;16.70;68.20
11925;DHT22;6022;48.768;18.608;2024-03-06T13:27:17;16.50;68.40
11925;DHT22;6022;48.768;18.608;2024-03-06T13:29:44;16.70;69.00
11925;DHT22;6022;48.768;18.608;2024-03-06T13:32:13;17.10;68.30
11925;DHT22;6022;48.768;18.608;2024-03-06T13:34:40;17.30;68.70
11925;DHT22;6022;48.768;18.608;2024-03-06T13:37:08;17.50;66.00
11925;DHT22;6022;48.768;18.608;2024-03-06T13:39:37;17.60;66.60
11925;DHT22;6022;48.768;18.608;2024-03-06T13:42:07;17.10;65.00
11925;DHT22;6022;48.768;18.608;2024-03-06T13:44:43;17.20;65.80
11925;DHT22;6022;48.768;18.608;2024-03-06T13:47:22;17.50;65.90
11925;DHT22;6022;48.768;18.608;2024-03-06T13:49:51;17.60;65.10
11925;DHT22;6022;48.768;18.608;2024-03-06T13:52:23;17.80;64.10
11925;DHT22;6022;48.768;18.608;2024-03-06T13:54:51;17.50;64.00
11925;DHT22;6022;48.768;18.608;2024-03-06T13:57:19;17.40;64.10
11925;DHT22;6022;48.768;18.608;2024-03-06T13:59:48;17.30;64.20
11925;DHT22;6022;48.768;18.608;2024-03-06T14:02:17;17.30;63.20
11925;DHT22;6022;48.768;18.608;2024-03-06T14:04:44;16.60;64.60
11925;DHT22;6022;48.768;18.608;2024-03-06T14:07:12;16.60;65.40
11925;DHT22;6022;48.768;18.608;2024-03-06T14:09:41;16.50;65.30
11925;DHT22;6022;48.768;18.608;2024-03-06T14:12:09;16.10;65.00
11925;DHT22;6022;48.768;18.608;2024-03-06T14:14:38;16.20;66.50
11925;DHT22;6022;48.768;18.608;2024-03-06T14:17:06;16.20;66.20
11925;DHT22;6022;48.768;18.608;2024-03-06T14:19:35;16.20;66.40
11925;DHT22;6022;48.768;18.608;2024-03-06T14:22:03;16.10;67.40
11925;DHT22;6022;48.768;18.608;2024-03-06T14:24:34;16.20;69.70
11925;DHT22;6022;48.768;18.608;2024-03-06T14:27:03;16.00;68.90
11925;DHT22;6022;48.768;18.608;2024-03-06T14:29:31;16.10;69.00
11925;DHT22;6022;48.768;18.608;2024-03-06T14:31:59;15.90;67.90
11925;DHT22;6022;48.768;18.608;2024-03-06T14:34:27;15.90;67.90
11925;DHT22;6022;48.768;18.608;2024-03-06T14:36:55;15.70;68.70
11925;DHT22;6022;48.768;18.608;2024-03-06T14:39:23;15.70;69.10
11925;DHT22;6022;48.768;18.608;2024-03-06T14:41:53;15.40;69.30
11925;DHT22;6022;48.768;18.608;2024-03-06T14:44:22;15.30;70.00
11925;DHT22;6022;48.768;18.608;2024-03-06T14:46:51;15.30;71.60
11925;DHT22;6022;48.768;18.608;2024-03-06T14:49:19;15.20;70.90
11925;DHT22;6022;48.768;18.608;2024-03-06T14:51:47;15.20;71.40
11925;DHT22;6022;48.768;18.608;2024-03-06T14:54:16;15.40;71.00
11925;DHT22;6022;48.768;18.608;2024-03-06T14:56:44;15.20;71.60
11925;DHT22;6022;48.768;18.608;2024-03-06T14:59:12;15.00;72.50
11925;DHT22;6022;48.768;18.608;2024-03-06T15:01:40;14.90;75.30
11925;DHT22;6022;48.768;18.608;2024-03-06T15:04:08;14.30;74.70
11925;DHT22;6022;48.768;18.608;2024-03-06T15:06:37;14.40;75.00
11925;DHT22;6022;48.768;18.608;2024-03-06T15:09:05;14.30;75.90
11925;DHT22;6022;48.768;18.608;2024-03-06T15:11:33;14.10;76.70
11925;DHT22;6022;48.768;18.608;2024-03-06T15:14:01;13.90;77.40
11925;DHT22;6022;48.768;18.608;2024-03-06T15:16:30;14.00;78.30
11925;DHT22;6022;48.768;18.608;2024-03-06T15:18:58;13.80;79.00
11925;DHT22;6022;48.768;18.608;2024-03-06T15:21:26;13.60;79.70
11925;DHT22;6022;48.768;18.608;2024-03-06T15:23:54;13.30;81.80
11925;DHT22;6022;48.768;18.608;2024-03-06T15:26:21;13.50;82.10
11925;DHT22;6022;48.768;18.608;2024-03-06T15:28:49;13.60;82.10
11925;DHT22;6022;48.768;18.608;2024-03-06T15:31:16;13.50;82.60
11925;DHT22;6022;48.768;18.608;2024-03-06T15:33:44;13.50;82.20
11925;DHT22;6022;48.768;18.608;2024-03-06T15:36:15;13.30;83.40
11925;DHT22;6022;48.768;18.608;2024-03-06T15:38:43;13.10;84.80
11925;DHT22;6022;48.768;18.608;2024-03-06T15:41:12;13.00;86.40
11925;DHT22;6022;48.768;18.608;2024-03-06T15:43:39;13.20;87.40
11925;DHT22;6022;48.768;18.608;2024-03-06T15:46:08;12.50;89.00
11925;DHT22;6022;48.768;18.608;2024-03-06T15:48:36;12.40;90.60
11925;DHT22;6022;48.768;18.608;2024-03-06T15:51:07;12.50;91.30
11925;DHT22;6022;48.768;18.608;2024-03-06T15:53:36;12.50;91.70
11925;DHT22;6022;48.768;18.608;2024-03-06T15:56:04;12.20;92.10
11925;DHT22;6022;48.768;18.608;2024-03-06T15:58:36;12.20;92.50
11925;DHT22;6022;48.768;18.608;2024-03-06T16:01:05;11.80;92.80
11925;DHT22;6022;48.768;18.608;2024-03-06T16:03:32;11.60;93.70
11925;DHT22;6022;48.768;18.608;2024-03-06T16:06:00;11.90;93.90